createdAt,value
2023-01-06T00:01:37.881Z,97767.44
2023-01-06T00:06:41.640Z,97757.03
2023-01-06T00:11:44.920Z,97745.72
2023-01-06T00:16:49.426Z,97759.97
2023-01-06T00:21:52.525Z,97749.31
2023-01-06T00:26:55.648Z,97738.97
2023-01-06T00:32:01.844Z,97744.66
2023-01-06T00:37:05.738Z,97733.66
2023-01-06T00:42:09.053Z,97732.94
2023-01-06T00:47:14.252Z,97736.03
2023-01-06T00:52:17.734Z,97734.25
2023-01-06T00:57:20.893Z,97740.66
2023-01-06T01:02:25.643Z,97744.34
2023-01-06T01:07:29.239Z,97743.19
2023-01-06T01:12:32.690Z,97743.28
2023-01-06T01:17:37.128Z,97743.94
2023-01-06T01:22:40.180Z,97747.09
2023-01-06T01:27:43.398Z,97746.97
2023-01-06T01:32:48.037Z,97740.44
2023-01-06T01:37:51.309Z,97723.13
2023-01-06T01:42:54.455Z,97715.13
2023-01-06T01:48:03.647Z,97733.06
2023-01-06T01:53:11.002Z,97721.03
2023-01-06T01:58:17.497Z,97723.09
2023-01-06T02:03:24.310Z,97712.03
2023-01-06T02:08:33.118Z,97713.75
2023-01-06T02:13:39.688Z,97718.81
2023-01-06T02:18:54.825Z,97715.31
2023-01-06T02:24:26.353Z,97709.31
2023-01-06T02:30:20.522Z,97710.50
2023-01-06T02:35:44.908Z,97705.63
2023-01-06T02:41:10.973Z,97702.66
2023-01-06T02:46:27.915Z,97700.56
2023-01-06T02:51:41.121Z,97683.84
2023-01-06T02:56:50.166Z,97679.88
2023-01-06T03:01:55.657Z,97681.13
2023-01-06T03:07:03.468Z,97682.16
2023-01-06T03:12:13.726Z,97672.66
2023-01-06T03:17:17.152Z,97667.81
2023-01-06T03:22:23.156Z,97662.50
2023-01-06T03:27:28.066Z,97661.41
2023-01-06T03:32:39.980Z,97659.81
2023-01-06T03:37:54.107Z,97654.81
2023-01-06T03:43:16.558Z,97652.81
2023-01-06T03:48:31.647Z,97640.03
2023-01-06T03:53:41.372Z,97634.72
2023-01-06T03:58:49.171Z,97630.31
2023-01-06T04:03:54.292Z,97635.16
2023-01-06T04:09:00.969Z,97630.13
2023-01-06T04:14:04.787Z,97630.13
2023-01-06T04:19:08.981Z,97620.28
2023-01-06T04:24:13.871Z,97624.53
2023-01-06T04:29:17.743Z,97609.53
2023-01-06T04:34:21.293Z,97598.72
2023-01-06T04:39:26.606Z,97595.34
2023-01-06T04:44:29.701Z,97599.63
2023-01-06T04:49:32.995Z,97595.19
2023-01-06T04:54:37.897Z,97588.44
2023-01-06T04:59:40.999Z,97577.56
2023-01-06T05:04:47.977Z,97574.88
2023-01-06T05:09:52.877Z,97567.13
2023-01-06T05:14:56.090Z,97562.97
2023-01-06T05:19:59.931Z,97565.25
2023-01-06T05:25:05.214Z,97551.41
2023-01-06T05:30:09.678Z,97552.31
2023-01-06T05:35:12.808Z,97551.00
2023-01-06T05:40:17.662Z,97541.75
2023-01-06T05:45:21.529Z,97538.88
2023-01-06T05:50:24.824Z,97545.75
2023-01-06T05:55:29.947Z,97543.38
2023-01-06T06:00:33.665Z,97549.25
2023-01-06T06:05:37.025Z,97544.22
2023-01-06T06:10:41.645Z,97534.09
2023-01-06T06:15:44.687Z,97528.44
2023-01-06T06:20:47.891Z,97550.56
2023-01-06T06:25:52.576Z,97540.53
2023-01-06T06:30:55.872Z,97550.56
2023-01-06T06:35:59.501Z,97556.69
2023-01-06T06:41:04.174Z,97567.13
2023-01-06T06:46:08.108Z,97573.91
2023-01-06T06:51:13.861Z,97563.69
2023-01-06T06:56:19.707Z,97567.22
2023-01-06T07:01:22.949Z,97542.16
2023-01-06T07:06:28.998Z,97533.44
2023-01-06T07:11:33.588Z,97531.06
2023-01-06T07:16:36.709Z,97548.97
2023-01-06T07:21:40.035Z,97539.09
2023-01-06T07:26:44.570Z,97541.22
2023-01-06T07:31:47.808Z,97553.06
2023-01-06T07:36:50.940Z,97557.31
2023-01-06T07:41:55.641Z,97556.53
2023-01-06T07:46:58.868Z,97567.19
2023-01-06T07:52:02.283Z,97550.84
2023-01-06T07:57:07.132Z,97557.34
2023-01-06T08:02:11.748Z,97548.13
2023-01-06T08:07:15.580Z,97559.16
2023-01-06T08:12:20.252Z,97563.97
2023-01-06T08:17:23.423Z,97552.19
2023-01-06T08:22:26.705Z,97551.94
2023-01-06T08:27:31.314Z,97562.16
2023-01-06T08:32:34.493Z,97574.13
2023-01-06T08:37:37.715Z,97563.69
2023-01-06T08:42:42.311Z,97570.13
2023-01-06T08:47:45.517Z,97580.78
2023-01-06T08:52:48.763Z,97584.28
2023-01-06T08:57:55.048Z,97586.78
2023-01-06T09:02:58.403Z,97592.31
2023-01-06T09:08:01.516Z,97595.44
2023-01-06T09:13:06.423Z,97576.22
2023-01-06T09:18:09.798Z,97583.81
2023-01-06T09:23:12.936Z,97586.69
2023-01-06T09:28:17.739Z,97608.56
2023-01-06T09:33:20.890Z,97613.44
2023-01-06T09:38:24.261Z,97589.13
2023-01-06T09:43:39.877Z,97596.22
2023-01-06T09:48:47.968Z,97590.34
2023-01-06T09:53:55.228Z,97573.47
2023-01-06T09:59:08.526Z,97579.72
2023-01-06T10:04:18.446Z,97584.19
2023-01-06T10:09:28.545Z,97587.22
2023-01-06T10:14:43.903Z,97587.47
2023-01-06T10:20:00.964Z,97588.63
2023-01-06T10:25:11.587Z,97596.97
2023-01-06T10:30:21.312Z,97584.91
2023-01-06T10:35:27.955Z,97594.78
2023-01-06T10:40:33.150Z,97602.84
2023-01-06T10:45:40.247Z,97620.88
2023-01-06T10:50:43.930Z,97626.09
2023-01-06T10:55:50.778Z,97616.75
2023-01-06T11:01:08.074Z,97635.69
2023-01-06T11:06:19.529Z,97619.22
2023-01-06T11:11:29.255Z,97608.94
2023-01-06T11:16:37.155Z,97599.69
2023-01-06T11:21:43.595Z,97587.75
2023-01-06T11:26:51.454Z,97583.41
2023-01-06T11:31:56.888Z,97589.00
2023-01-06T11:37:00.571Z,97568.78
2023-01-06T11:42:10.978Z,97565.91
2023-01-06T11:47:18.230Z,97562.66
2023-01-06T11:52:24.667Z,97561.31
2023-01-06T11:57:36.758Z,97557.34
2023-01-06T12:02:52.007Z,97550.06
2023-01-06T12:07:58.830Z,97544.31
2023-01-06T12:13:02.208Z,97552.56
2023-01-06T12:18:14.546Z,97557.94
2023-01-06T12:23:25.475Z,97550.25
2023-01-06T12:28:31.821Z,97542.03
2023-01-06T12:33:41.194Z,97567.16
2023-01-06T12:38:53.988Z,97579.66
2023-01-06T12:44:04.799Z,97579.03
2023-01-06T12:49:21.541Z,97590.50
2023-01-06T12:54:31.245Z,97589.09
2023-01-06T12:59:45.449Z,97581.69
2023-01-06T13:05:17.257Z,97577.28
2023-01-06T13:10:31.988Z,97574.31
2023-01-06T13:15:40.059Z,97578.28
2023-01-06T13:20:48.944Z,97585.72
2023-01-06T13:26:16.113Z,97570.97
2023-01-06T13:31:33.788Z,97579.00
2023-01-06T13:36:57.361Z,97589.59
2023-01-06T13:42:04.671Z,97590.56
2023-01-06T13:47:12.402Z,97603.47
2023-01-06T13:52:20.828Z,97591.06
2023-01-06T13:57:32.683Z,97595.97
2023-01-06T14:03:14.306Z,97602.97
2023-01-06T14:08:21.421Z,97606.53
2023-01-06T14:13:27.551Z,97598.63
2023-01-06T14:18:35.447Z,97596.69
2023-01-06T14:23:51.146Z,97605.47
2023-01-06T14:28:54.533Z,97617.66
2023-01-06T14:33:59.569Z,97624.47
2023-01-06T14:39:07.200Z,97624.72
2023-01-06T14:44:16.626Z,97632.69
2023-01-06T14:49:23.452Z,97640.47
2023-01-06T14:54:31.841Z,97645.13
2023-01-06T14:59:35.195Z,97652.75
2023-01-06T15:04:38.490Z,97647.81
2023-01-06T15:09:43.040Z,97647.88
2023-01-06T15:14:46.389Z,97663.13
2023-01-06T15:19:51.882Z,97665.91
2023-01-06T15:24:56.684Z,97668.41
2023-01-06T15:30:00.359Z,97675.75
2023-01-06T15:35:03.971Z,97682.94
2023-01-06T15:40:12.220Z,97681.63
2023-01-06T15:45:28.367Z,97697.09
2023-01-06T15:50:34.637Z,97691.34
2023-01-06T15:55:43.640Z,97685.75
2023-01-06T16:00:51.062Z,97685.34
2023-01-06T16:06:11.361Z,97689.28
2023-01-06T16:11:42.610Z,97690.31
2023-01-06T16:16:45.917Z,97696.75
2023-01-06T16:21:53.429Z,97684.09
2023-01-06T16:27:02.116Z,97691.59
2023-01-06T16:32:28.053Z,97678.88
2023-01-06T16:37:34.647Z,97675.63
2023-01-06T16:42:43.446Z,97678.00
2023-01-06T16:47:47.230Z,97684.28
2023-01-06T16:52:55.724Z,97692.44
2023-01-06T16:58:02.286Z,97702.06
2023-01-06T17:03:14.019Z,97701.72
2023-01-06T17:08:19.163Z,97718.81
2023-01-06T17:13:35.964Z,97711.94
2023-01-06T17:18:49.464Z,97712.03
2023-01-06T17:23:55.930Z,97700.41
2023-01-06T17:29:03.491Z,97695.44
2023-01-06T17:34:17.483Z,97700.50
2023-01-06T17:39:24.433Z,97695.78
2023-01-06T17:44:36.275Z,97686.31
2023-01-06T17:49:40.412Z,97689.59
2023-01-06T17:55:08.403Z,97678.31
2023-01-06T18:00:22.623Z,97675.84
2023-01-06T18:06:08.156Z,97694.59
2023-01-06T18:11:34.532Z,97709.31
2023-01-06T18:16:40.479Z,97713.16
2023-01-06T18:21:45.206Z,97708.56
2023-01-06T18:26:51.650Z,97708.22
2023-01-06T18:31:56.589Z,97719.19
2023-01-06T18:37:01.709Z,97715.00
2023-01-06T18:42:23.506Z,97722.28
2023-01-06T18:47:30.015Z,97729.25
2023-01-06T18:52:40.011Z,97735.59
2023-01-06T18:57:45.992Z,97733.94
2023-01-06T19:02:54.625Z,97734.78
2023-01-06T19:07:58.403Z,97732.75
2023-01-06T19:13:02.241Z,97735.72
2023-01-06T19:18:13.819Z,97745.75
2023-01-06T19:23:20.909Z,97739.72
2023-01-06T19:28:26.539Z,97738.22
2023-01-06T19:33:44.613Z,97733.94
2023-01-06T19:38:49.775Z,97722.84
2023-01-06T19:43:59.489Z,97729.91
2023-01-06T19:49:04.648Z,97735.81
2023-01-06T19:54:23.313Z,97732.25
2023-01-06T19:59:29.415Z,97733.19
2023-01-06T20:04:34.409Z,97741.00
2023-01-06T20:09:37.546Z,97744.28
2023-01-06T20:14:40.796Z,97751.34
2023-01-06T20:19:45.333Z,97751.63
2023-01-06T20:24:48.711Z,97752.69
2023-01-06T20:29:52.918Z,97745.06
2023-01-06T20:34:57.891Z,97754.03
2023-01-06T20:40:01.126Z,97743.38
2023-01-06T20:45:05.173Z,97746.09
2023-01-06T20:50:13.785Z,97750.13
2023-01-06T20:55:17.369Z,97749.81
2023-01-06T21:00:20.979Z,97744.16
2023-01-06T21:05:25.613Z,97746.50
2023-01-06T21:10:29.265Z,97751.16
2023-01-06T21:15:32.459Z,97758.44
2023-01-06T21:20:37.553Z,97757.13
2023-01-06T21:25:41.265Z,97762.00
2023-01-06T21:30:44.526Z,97759.28
2023-01-06T21:35:49.280Z,97749.75
2023-01-06T21:40:52.864Z,97757.34
2023-01-06T21:45:56.422Z,97753.56
2023-01-06T21:51:01.581Z,97758.16
2023-01-06T21:56:05.142Z,97758.50
2023-01-06T22:01:08.309Z,97757.88
2023-01-06T22:06:13.112Z,97758.09
2023-01-06T22:11:16.543Z,97759.06
2023-01-06T22:16:20.413Z,97770.75
2023-01-06T22:21:26.022Z,97780.06
2023-01-06T22:26:29.488Z,97782.69
2023-01-06T22:31:32.794Z,97777.97
2023-01-06T22:36:37.349Z,97780.91
2023-01-06T22:41:40.562Z,97760.13
2023-01-06T22:46:45.540Z,97760.75
2023-01-06T22:51:50.783Z,97761.78
2023-01-06T22:56:54.880Z,97767.81
2023-01-06T23:01:58.533Z,97771.50
2023-01-06T23:07:03.692Z,97766.44
2023-01-06T23:12:07.785Z,97758.44
2023-01-06T23:17:12.024Z,97749.44
2023-01-06T23:22:17.294Z,97742.25
2023-01-06T23:27:20.583Z,97727.81
2023-01-06T23:32:24.840Z,97730.03
2023-01-06T23:37:29.616Z,97709.22
2023-01-06T23:42:37.532Z,97709.94
2023-01-06T23:47:47.537Z,97716.25
2023-01-06T23:52:54.747Z,97708.16
2023-01-06T23:57:58.417Z,97704.03
